Time;durP1;ratioP1;P1;durP2;ratioP2;P2;SDS_P1;SDS_P2;PMS_P1;PMS_P2;Temp;Humidity;BMP_temperature;BMP_pressure;BME280_temperature;BME280_humidity;BME280_pressure;Samples;Min_cycle;Max_cycle;Signal;HPM_P1;HPM_P2
2022/12/31 00:00:38;;;;;;;;;;;;;;;12.02;100.00;100196.25;5052627;28;19960;-66
2022/12/31 00:03:05;;;;;;;;;;;;;;;12.02;100.00;100201.56;5058934;28;20007;-67
2022/12/31 00:05:31;;;;;;;;;;;;;;;12.07;100.00;100192.38;5068564;28;19913;-67
2022/12/31 00:07:57;;;;;;;;;;;;;;;12.03;100.00;100186.44;5054526;28;19921;-67
2022/12/31 00:10:22;;;;;;;;;;;;;;;12.03;100.00;100186.44;5071317;28;20283;-67
2022/12/31 00:12:47;;;;;;;;;;;;;;;12.13;100.00;100192.72;5070629;28;19909;-67
2022/12/31 00:15:13;;;;;;;;;;;;;;;12.09;100.00;100190.41;5072103;28;20448;-67
2022/12/31 00:17:38;;;;;;;;;;;;;;;12.16;100.00;100196.97;5059314;28;20190;-67
2022/12/31 00:20:04;;;;;;;;;;;;;;;12.22;100.00;100184.00;5058775;28;20379;-67
2022/12/31 00:22:29;;;;;;;;;;;;;;;12.27;100.00;100196.97;5067790;28;19939;-66
2022/12/31 00:24:54;;;;;;;;;;;;;;;12.12;100.00;100198.16;5066845;28;20279;-67
2022/12/31 00:27:21;;;;;;;;;;;;;;;12.11;100.00;100200.00;5051560;28;20372;-67
2022/12/31 00:29:46;;;;;;;;;;;;;;;12.11;100.00;100196.47;5051988;28;20291;-67
2022/12/31 00:32:12;;;;;;;;;;;;;;;12.07;100.00;100182.56;5071870;28;19915;-67
2022/12/31 00:34:37;;;;;;;;;;;;;;;12.05;100.00;100180.00;5070846;28;19920;-67
2022/12/31 00:37:02;;;;;;;;;;;;;;;12.05;100.00;100177.34;5087376;28;20360;-67
2022/12/31 00:39:27;;;;;;;;;;;;;;;12.06;100.00;100172.88;5058833;28;19916;-67
2022/12/31 00:41:53;;;;;;;;;;;;;;;12.10;100.00;100174.31;5059905;28;20511;-67
2022/12/31 00:44:18;;;;;;;;;;;;;;;12.11;100.00;100170.66;5065625;28;19969;-67
2022/12/31 00:46:44;;;;;;;;;;;;;;;12.07;100.00;100177.22;5070574;28;20368;-66
2022/12/31 00:49:12;;;;;;;;;;;;;;;12.15;100.00;100181.97;5067868;28;19928;-67
2022/12/31 00:51:38;;;;;;;;;;;;;;;12.20;100.00;100171.75;5066437;28;19999;-67
2022/12/31 00:54:03;;;;;;;;;;;;;;;12.17;100.00;100180.84;5058036;28;20026;-67
2022/12/31 00:56:29;;;;;;;;;;;;;;;12.14;100.00;100175.75;5049893;28;19916;-67
2022/12/31 00:58:54;;;;;;;;;;;;;;;12.16;100.00;100175.66;5061295;28;19912;-67
2022/12/31 01:01:21;;;;;;;;;;;;;;;12.08;100.00;100165.59;5071428;28;20390;-67
2022/12/31 01:03:47;;;;;;;;;;;;;;;12.08;100.00;100160.25;5068553;28;20513;-67
2022/12/31 01:06:13;;;;;;;;;;;;;;;12.19;100.00;100167.41;5051706;28;19916;-67
2022/12/31 01:08:38;;;;;;;;;;;;;;;12.06;100.00;100170.22;5050355;28;19909;-67
2022/12/31 01:11:20;;;;;;;;;;;;;;;12.05;100.00;100164.00;5063010;28;19916;-67
2022/12/31 01:14:03;;;;;;;;;;;;;;;12.05;100.00;100153.34;5098447;28;19916;-67
2022/12/31 01:16:48;;;;;;;;;;;;;;;12.03;100.00;100155.31;5031732;28;19959;-67
2022/12/31 01:19:21;;;;;;;;;;;;;;;12.05;100.00;100149.84;5050428;28;19921;-68
2022/12/31 01:21:50;;;;;;;;;;;;;;;12.03;100.00;100142.00;5071480;28;19908;-67
2022/12/31 01:24:15;;;;;;;;;;;;;;;12.01;100.00;100149.25;5065216;28;20562;-67
2022/12/31 01:26:44;;;;;;;;;;;;;;;11.95;100.00;100157.75;5055884;28;19917;-68
2022/12/31 01:29:09;;;;;;;;;;;;;;;11.99;100.00;100161.00;5070118;28;20311;-67
2022/12/31 01:31:35;;;;;;;;;;;;;;;12.13;100.00;100160.75;5053610;28;19919;-68
2022/12/31 01:34:00;;;;;;;;;;;;;;;11.89;100.00;100174.22;5057900;28;19942;-66
2022/12/31 01:36:27;;;;;;;;;;;;;;;11.87;100.00;100172.63;5090762;28;19916;-67
2022/12/31 01:38:53;;;;;;;;;;;;;;;11.87;100.00;100165.50;5074431;28;19980;-67
2022/12/31 01:41:21;;;;;;;;;;;;;;;11.83;100.00;100178.19;5073704;28;20397;-67
2022/12/31 01:43:48;;;;;;;;;;;;;;;11.87;100.00;100183.28;5074550;28;19959;-67
2022/12/31 01:46:19;;;;;;;;;;;;;;;11.83;100.00;100166.69;5066198;28;19919;-67
2022/12/31 01:48:46;;;;;;;;;;;;;;;11.78;100.00;100184.84;5074919;28;19990;-67
2022/12/31 01:51:12;;;;;;;;;;;;;;;11.78;100.00;100204.34;5073581;28;19908;-67
2022/12/31 01:53:37;;;;;;;;;;;;;;;11.81;100.00;100224.56;5072725;28;19913;-67
2022/12/31 01:56:04;;;;;;;;;;;;;;;11.85;100.00;100236.69;5072747;28;20004;-67
2022/12/31 01:58:34;;;;;;;;;;;;;;;11.86;100.00;100224.25;5072198;28;19908;-67
2022/12/31 02:00:59;;;;;;;;;;;;;;;11.80;100.00;100202.41;5074547;28;19908;-67
2022/12/31 02:03:26;;;;;;;;;;;;;;;11.79;100.00;100175.88;5073018;28;19916;-67
2022/12/31 02:06:03;;;;;;;;;;;;;;;11.77;100.00;100192.00;5074435;28;19919;-67
2022/12/31 02:08:33;;;;;;;;;;;;;;;11.81;100.00;100198.75;5071676;28;20016;-67
2022/12/31 02:10:58;;;;;;;;;;;;;;;11.77;100.00;100192.00;5074108;28;20003;-66
2022/12/31 02:13:24;;;;;;;;;;;;;;;11.79;100.00;100197.19;5072858;28;20046;-66
2022/12/31 02:16:11;;;;;;;;;;;;;;;11.88;100.00;100200.97;5068913;28;19932;-66
2022/12/31 02:18:55;;;;;;;;;;;;;;;11.78;100.00;100217.66;5054497;28;19923;-66
2022/12/31 02:21:23;;;;;;;;;;;;;;;11.77;100.00;100218.63;5053933;28;20367;-67
2022/12/31 02:23:56;;;;;;;;;;;;;;;11.78;100.00;100225.66;5053505;28;19908;-67
2022/12/31 02:26:44;;;;;;;;;;;;;;;11.83;100.00;100238.63;5058495;28;20024;-66
2022/12/31 02:29:16;;;;;;;;;;;;;;;11.79;100.00;100246.00;5071642;28;20409;-67
2022/12/31 02:31:51;;;;;;;;;;;;;;;11.80;100.00;100238.88;5056833;28;19919;-67
2022/12/31 02:34:30;;;;;;;;;;;;;;;11.79;100.00;100235.34;5065106;28;20380;-68
2022/12/31 02:37:02;;;;;;;;;;;;;;;11.79;100.00;100240.69;5058132;28;19913;-67
2022/12/31 02:39:28;;;;;;;;;;;;;;;11.81;100.00;100245.88;5053025;28;19952;-67
2022/12/31 02:41:53;;;;;;;;;;;;;;;11.81;100.00;100257.38;5053745;28;19954;-66
2022/12/31 02:44:33;;;;;;;;;;;;;;;11.91;100.00;100252.22;5053449;28;20326;-67
2022/12/31 02:46:58;;;;;;;;;;;;;;;11.83;100.00;100254.59;5061038;28;19919;-67
2022/12/31 02:49:32;;;;;;;;;;;;;;;11.81;100.00;100257.38;5051457;28;19913;-67
2022/12/31 02:52:13;;;;;;;;;;;;;;;11.81;100.00;100240.53;5053163;28;20295;-67
2022/12/31 02:54:38;;;;;;;;;;;;;;;11.80;100.00;100236.19;5068203;28;20368;-67
2022/12/31 02:57:08;;;;;;;;;;;;;;;11.86;100.00;100232.25;5085874;28;19912;-67
2022/12/31 03:02:25;;;;;;;;;;;;;;;11.80;100.00;100238.88;5073417;28;19950;-67
2022/12/31 03:04:51;;;;;;;;;;;;;;;11.77;100.00;100228.44;5071947;28;20383;-66
2022/12/31 03:07:18;;;;;;;;;;;;;;;11.79;100.00;100222.03;5070033;28;19958;-67
2022/12/31 03:09:45;;;;;;;;;;;;;;;11.73;100.00;100219.81;5063395;28;19908;-67
2022/12/31 03:14:55;;;;;;;;;;;;;;;11.72;100.00;100218.13;5067478;28;19991;-66
2022/12/31 03:17:20;;;;;;;;;;;;;;;11.73;100.00;100213.66;5054702;28;19951;-67
2022/12/31 03:22:30;;;;;;;;;;;;;;;11.75;100.00;100214.38;5097875;28;19919;-66
2022/12/31 03:27:50;;;;;;;;;;;;;;;11.72;100.00;100206.63;5055563;28;20405;-66
2022/12/31 03:30:16;;;;;;;;;;;;;;;11.70;100.00;100201.41;5070906;28;19916;-67
2022/12/31 03:32:44;;;;;;;;;;;;;;;11.78;100.00;100203.50;5069294;28;19912;-67
2022/12/31 03:35:12;;;;;;;;;;;;;;;11.71;100.00;100200.47;5062784;28;19926;-66
2022/12/31 03:37:38;;;;;;;;;;;;;;;11.69;100.00;100188.22;5065569;28;20387;-66
2022/12/31 03:40:05;;;;;;;;;;;;;;;11.76;100.00;100179.63;5052168;28;19908;-66
2022/12/31 03:42:30;;;;;;;;;;;;;;;11.68;100.00;100176.72;5050560;28;19971;-66
2022/12/31 03:44:56;;;;;;;;;;;;;;;11.67;100.00;100184.81;5075499;28;20387;-66
2022/12/31 03:47:21;;;;;;;;;;;;;;;11.66;100.00;100181.31;5052926;28;19999;-67
2022/12/31 03:49:46;;;;;;;;;;;;;;;11.69;100.00;100166.91;5068903;28;20329;-67
2022/12/31 03:52:12;;;;;;;;;;;;;;;11.67;100.00;100172.34;5102446;28;20015;-67
2022/12/31 03:54:37;;;;;;;;;;;;;;;11.66;100.00;100177.81;5062275;28;19950;-66
2022/12/31 03:57:03;;;;;;;;;;;;;;;11.71;100.00;100168.50;5072446;28;19908;-66
2022/12/31 03:59:28;;;;;;;;;;;;;;;11.67;100.00;100158.19;5069808;28;19916;-66
2022/12/31 04:01:54;;;;;;;;;;;;;;;11.66;100.00;100161.84;5069069;28;20371;-66
2022/12/31 04:04:19;;;;;;;;;;;;;;;11.71;100.00;100170.31;5067255;28;19926;-66
2022/12/31 04:06:44;;;;;;;;;;;;;;;11.67;100.00;100174.19;5055095;28;20375;-66
2022/12/31 04:09:10;;;;;;;;;;;;;;;11.66;100.00;100160.00;5056044;28;19912;-66
2022/12/31 04:11:35;;;;;;;;;;;;;;;11.74;100.00;100162.94;5072274;28;19916;-66
2022/12/31 04:14:01;;;;;;;;;;;;;;;11.77;100.00;100165.34;5069734;28;19916;-66
2022/12/31 04:16:26;;;;;;;;;;;;;;;11.81;100.00;100156.13;5095440;28;20334;-66
2022/12/31 04:18:51;;;;;;;;;;;;;;;11.86;100.00;100163.81;5069685;28;20014;-66
2022/12/31 04:21:17;;;;;;;;;;;;;;;11.92;100.00;100162.47;5061258;28;19935;-66
2022/12/31 04:23:42;;;;;;;;;;;;;;;12.07;100.00;100150.56;5050440;28;19948;-66
2022/12/31 04:26:07;;;;;;;;;;;;;;;12.08;100.00;100154.09;5063617;28;19958;-65
2022/12/31 04:28:33;;;;;;;;;;;;;;;12.28;100.00;100140.81;5071420;28;20395;-66
2022/12/31 04:30:58;;;;;;;;;;;;;;;12.23;100.00;100136.84;5071257;28;20434;-66
2022/12/31 04:33:24;;;;;;;;;;;;;;;12.25;100.00;100137.56;5078796;28;19917;-66
2022/12/31 04:35:49;;;;;;;;;;;;;;;12.34;100.00;100141.31;5081151;28;19920;-66
2022/12/31 04:38:17;;;;;;;;;;;;;;;12.42;100.00;100142.38;5050004;28;20344;-66
2022/12/31 04:43:39;;;;;;;;;;;;;;;12.57;100.00;100131.41;5045209;28;19920;-66
2022/12/31 04:46:04;;;;;;;;;;;;;;;12.71;100.00;100152.47;5063642;28;19919;-67
2022/12/31 04:48:29;;;;;;;;;;;;;;;12.83;100.00;100154.09;5070328;28;20424;-66
2022/12/31 04:50:55;;;;;;;;;;;;;;;12.98;100.00;100159.97;5070654;28;19909;-66
2022/12/31 04:53:23;;;;;;;;;;;;;;;13.02;100.00;100158.72;5070696;28;19920;-66
2022/12/31 04:55:49;;;;;;;;;;;;;;;13.16;100.00;100161.09;5065867;28;19919;-67
2022/12/31 04:58:17;;;;;;;;;;;;;;;13.07;100.00;100166.38;5053339;28;19912;-66
2022/12/31 05:00:44;;;;;;;;;;;;;;;13.15;100.00;100183.44;5063250;28;20351;-66
2022/12/31 05:03:10;;;;;;;;;;;;;;;13.29;100.00;100170.75;5053955;28;19913;-66
2022/12/31 05:05:38;;;;;;;;;;;;;;;13.26;100.00;100181.69;5065484;28;19913;-66
2022/12/31 05:08:03;;;;;;;;;;;;;;;13.47;100.00;100185.22;5073833;28;19908;-66
2022/12/31 05:10:29;;;;;;;;;;;;;;;13.33;100.00;100191.72;5073177;28;19916;-67
2022/12/31 05:12:54;;;;;;;;;;;;;;;13.29;100.00;100179.59;5073939;28;19912;-66
2022/12/31 05:15:20;;;;;;;;;;;;;;;13.40;100.00;100176.03;5075105;28;20279;-66
2022/12/31 05:17:45;;;;;;;;;;;;;;;13.41;100.00;100177.69;5075575;28;19912;-66
2022/12/31 05:20:11;;;;;;;;;;;;;;;13.63;100.00;100198.09;5075041;28;20363;-66
2022/12/31 05:22:36;;;;;;;;;;;;;;;13.50;100.00;100197.44;5072897;28;19944;-66
2022/12/31 05:25:02;;;;;;;;;;;;;;;13.81;100.00;100209.84;5073497;28;19970;-67
2022/12/31 05:27:29;;;;;;;;;;;;;;;13.80;100.00;100207.31;5090293;28;19917;-66
2022/12/31 05:29:55;;;;;;;;;;;;;;;13.70;100.00;100201.91;5075102;28;19908;-66
2022/12/31 05:32:21;;;;;;;;;;;;;;;13.66;100.00;100229.91;5076790;28;20637;-66
2022/12/31 05:34:46;;;;;;;;;;;;;;;13.72;100.00;100218.66;5053636;28;19943;-66
2022/12/31 05:37:12;;;;;;;;;;;;;;;13.84;100.00;100214.09;5087344;28;19913;-67
2022/12/31 05:39:38;;;;;;;;;;;;;;;13.74;100.00;100211.38;5053861;28;19974;-66
2022/12/31 05:42:04;;;;;;;;;;;;;;;13.68;100.00;100208.38;5061767;28;19919;-66
2022/12/31 05:44:29;;;;;;;;;;;;;;;13.55;100.00;100222.78;5053732;28;19960;-66
2022/12/31 05:46:55;;;;;;;;;;;;;;;13.50;100.00;100241.06;5069643;28;19990;-66
2022/12/31 05:49:20;;;;;;;;;;;;;;;13.55;100.00;100219.28;5054670;28;19908;-66
2022/12/31 05:51:46;;;;;;;;;;;;;;;13.70;100.00;100214.44;5054823;28;19909;-66
2022/12/31 05:54:12;;;;;;;;;;;;;;;13.73;100.00;100209.66;5053968;28;19924;-66
2022/12/31 05:56:39;;;;;;;;;;;;;;;13.76;100.00;100216.56;5057390;28;20008;-66
2022/12/31 05:59:07;;;;;;;;;;;;;;;13.86;100.00;100207.63;5051713;28;20028;-66
2022/12/31 06:01:33;;;;;;;;;;;;;;;13.74;100.00;100216.72;5103930;28;19916;-66
2022/12/31 06:04:00;;;;;;;;;;;;;;;13.73;100.00;100225.69;5104193;28;20356;-66
2022/12/31 06:06:26;;;;;;;;;;;;;;;13.73;100.00;100239.06;5054109;28;20012;-65
2022/12/31 06:08:52;;;;;;;;;;;;;;;13.80;100.00;100242.06;5053785;28;19995;-66
2022/12/31 06:11:17;;;;;;;;;;;;;;;13.83;100.00;100223.09;5053865;28;19909;-66
2022/12/31 06:13:45;;;;;;;;;;;;;;;13.84;100.00;100232.81;5086321;28;19917;-66
2022/12/31 06:16:14;;;;;;;;;;;;;;;13.96;100.00;100247.78;5069060;28;20340;-66
2022/12/31 06:18:39;;;;;;;;;;;;;;;14.18;100.00;100249.44;5053277;28;19917;-66
2022/12/31 06:21:04;;;;;;;;;;;;;;;14.10;100.00;100249.25;5052683;28;20386;-66
2022/12/31 06:23:30;;;;;;;;;;;;;;;14.14;100.00;100252.50;5053496;28;19994;-66
2022/12/31 06:25:55;;;;;;;;;;;;;;;14.36;100.00;100238.94;5055147;28;20003;-67
2022/12/31 06:28:20;;;;;;;;;;;;;;;14.25;100.00;100263.94;5073907;28;20297;-67
2022/12/31 06:30:46;;;;;;;;;;;;;;;14.35;100.00;100268.47;5071826;28;19919;-66
2022/12/31 06:33:11;;;;;;;;;;;;;;;14.47;100.00;100254.00;5065915;28;19912;-66
2022/12/31 06:35:39;;;;;;;;;;;;;;;14.42;100.00;100249.09;5086058;28;20003;-66
2022/12/31 06:38:05;;;;;;;;;;;;;;;14.40;100.00;100247.53;5054975;28;19935;-66
2022/12/31 06:40:31;;;;;;;;;;;;;;;14.57;99.80;100270.16;5053850;28;19909;-66
2022/12/31 06:42:56;;;;;;;;;;;;;;;14.59;99.87;100258.31;5053816;28;19916;-66
2022/12/31 06:45:22;;;;;;;;;;;;;;;14.57;99.76;100249.59;5085667;28;19913;-66
2022/12/31 06:47:47;;;;;;;;;;;;;;;14.57;99.95;100264.81;5067695;28;19917;-66
2022/12/31 06:50:13;;;;;;;;;;;;;;;14.58;98.82;100261.13;5074457;28;20279;-66
2022/12/31 06:52:38;;;;;;;;;;;;;;;14.62;98.95;100271.44;5053379;28;20402;-66
2022/12/31 06:55:04;;;;;;;;;;;;;;;14.68;98.20;100262.00;5034598;28;19954;-66
2022/12/31 06:57:30;;;;;;;;;;;;;;;14.69;96.73;100244.97;5053067;28;20390;-66
2022/12/31 06:59:55;;;;;;;;;;;;;;;14.77;97.13;100259.34;5052951;28;19932;-67
2022/12/31 07:02:20;;;;;;;;;;;;;;;14.81;96.69;100243.00;5062536;28;19912;-65
2022/12/31 07:04:46;;;;;;;;;;;;;;;14.80;96.28;100260.06;5072261;28;19999;-66
2022/12/31 07:07:30;;;;;;;;;;;;;;;14.89;96.25;100265.41;5070421;28;19915;-66
2022/12/31 07:10:00;;;;;;;;;;;;;;;14.76;97.03;100271.03;5072600;28;19908;-66
2022/12/31 07:12:51;;;;;;;;;;;;;;;14.89;95.92;100262.75;5073102;28;19912;-67
2022/12/31 07:15:31;;;;;;;;;;;;;;;14.74;96.70;100270.34;5065068;28;19908;-67
2022/12/31 07:18:05;;;;;;;;;;;;;;;14.80;97.34;100282.31;5068862;28;20349;-66
2022/12/31 07:20:31;;;;;;;;;;;;;;;14.66;97.24;100266.66;5061679;28;19916;-66
2022/12/31 07:22:56;;;;;;;;;;;;;;;14.74;95.62;100272.16;5088221;28;19912;-67
2022/12/31 07:25:22;;;;;;;;;;;;;;;14.82;96.66;100274.13;5058999;28;19962;-66
2022/12/31 07:27:53;;;;;;;;;;;;;;;14.80;96.66;100268.94;5095214;28;20283;-66
2022/12/31 07:30:25;;;;;;;;;;;;;;;14.75;96.59;100271.16;5052654;28;19959;-67
2022/12/31 07:32:50;;;;;;;;;;;;;;;14.74;96.67;100273.00;5051406;28;20321;-66
2022/12/31 07:35:20;;;;;;;;;;;;;;;14.65;97.40;100281.03;5052558;28;19985;-66
2022/12/31 07:37:54;;;;;;;;;;;;;;;14.79;96.78;100282.44;5053678;28;19955;-67
2022/12/31 07:40:28;;;;;;;;;;;;;;;14.67;96.74;100290.59;5052098;28;19927;-66
2022/12/31 07:43:00;;;;;;;;;;;;;;;14.79;95.88;100288.63;5052667;28;19991;-66
2022/12/31 07:45:28;;;;;;;;;;;;;;;14.72;97.48;100277.66;5052453;28;19999;-66
2022/12/31 07:47:53;;;;;;;;;;;;;;;14.63;97.62;100286.50;5053579;28;19916;-66
2022/12/31 07:50:19;;;;;;;;;;;;;;;14.66;98.21;100275.53;5066761;28;20034;-66
2022/12/31 07:52:44;;;;;;;;;;;;;;;14.56;99.11;100295.19;5072450;28;19912;-66
2022/12/31 07:55:10;;;;;;;;;;;;;;;14.61;98.70;100288.47;5070987;28;19951;-66
2022/12/31 07:57:49;;;;;;;;;;;;;;;14.60;98.27;100275.22;5067450;28;19968;-66
2022/12/31 08:00:15;;;;;;;;;;;;;;;14.48;99.26;100277.13;5052572;28;19909;-66
2022/12/31 08:02:59;;;;;;;;;;;;;;;14.47;99.61;100284.31;5052277;28;19913;-66
2022/12/31 08:05:39;;;;;;;;;;;;;;;14.64;98.28;100292.69;5061523;28;19913;-66
2022/12/31 08:08:04;;;;;;;;;;;;;;;14.49;99.66;100322.47;5072149;28;20333;-66
2022/12/31 08:10:29;;;;;;;;;;;;;;;14.59;99.90;100319.88;5060319;28;19920;-66
2022/12/31 08:12:59;;;;;;;;;;;;;;;14.52;100.00;100350.81;5042440;28;20391;-66
2022/12/31 08:15:26;;;;;;;;;;;;;;;14.49;100.00;100343.88;5072953;28;19912;-67
2022/12/31 08:17:51;;;;;;;;;;;;;;;14.47;100.00;100342.31;5056523;28;20371;-66
2022/12/31 08:20:16;;;;;;;;;;;;;;;14.29;100.00;100350.13;5068759;28;19915;-67
2022/12/31 08:22:54;;;;;;;;;;;;;;;14.20;100.00;100361.63;5070112;28;19919;-66
2022/12/31 08:25:30;;;;;;;;;;;;;;;14.16;100.00;100353.03;5070613;28;19931;-67
2022/12/31 08:28:17;;;;;;;;;;;;;;;14.23;100.00;100359.53;5070719;28;19916;-67
2022/12/31 08:31:01;;;;;;;;;;;;;;;14.23;100.00;100367.53;5072196;28;20278;-66
2022/12/31 08:33:32;;;;;;;;;;;;;;;14.60;99.46;100409.03;5062616;28;19924;-67
2022/12/31 08:36:04;;;;;;;;;;;;;;;14.40;100.00;100392.00;5077068;28;19916;-67
2022/12/31 08:38:29;;;;;;;;;;;;;;;14.41;100.00;100385.66;5076660;28;19981;-66
2022/12/31 08:41:07;;;;;;;;;;;;;;;14.55;99.88;100393.38;5078204;28;20367;-66
2022/12/31 08:43:45;;;;;;;;;;;;;;;14.61;99.73;100402.69;5069026;28;19909;-66
2022/12/31 08:46:27;;;;;;;;;;;;;;;14.45;100.00;100392.47;5067480;28;19916;-66
2022/12/31 08:48:53;;;;;;;;;;;;;;;14.35;100.00;100402.25;5064304;28;19912;-66
2022/12/31 08:51:20;;;;;;;;;;;;;;;14.44;100.00;100425.53;5058352;28;19916;-67
2022/12/31 08:53:47;;;;;;;;;;;;;;;14.38;100.00;100426.91;5058044;28;19912;-65
2022/12/31 08:56:21;;;;;;;;;;;;;;;14.37;100.00;100446.63;5073542;28;19908;-66
2022/12/31 08:58:46;;;;;;;;;;;;;;;14.46;99.63;100436.97;5078437;28;20382;-66
2022/12/31 09:01:13;;;;;;;;;;;;;;;14.58;98.98;100441.28;5078497;28;19912;-66
2022/12/31 09:03:57;;;;;;;;;;;;;;;14.51;99.90;100458.81;5071496;28;19908;-65
2022/12/31 09:06:27;;;;;;;;;;;;;;;14.48;100.00;100456.41;5073746;28;19957;-65
2022/12/31 09:09:16;;;;;;;;;;;;;;;14.56;100.00;100471.84;5066763;28;19909;-67
2022/12/31 09:12:00;;;;;;;;;;;;;;;14.44;100.00;100471.91;5043772;28;19913;-66
2022/12/31 09:14:45;;;;;;;;;;;;;;;14.28;100.00;100475.00;5062948;28;20374;-66
2022/12/31 09:17:14;;;;;;;;;;;;;;;14.28;100.00;100472.34;5078118;28;19916;-67
2022/12/31 09:19:39;;;;;;;;;;;;;;;14.24;100.00;100486.97;5077842;28;20374;-66
2022/12/31 09:22:04;;;;;;;;;;;;;;;14.41;100.00;100500.72;5063191;28;19919;-67
2022/12/31 09:24:30;;;;;;;;;;;;;;;14.18;100.00;100506.19;5064339;28;19916;-67
2022/12/31 09:27:01;;;;;;;;;;;;;;;14.04;100.00;100507.34;5077533;28;20352;-66
2022/12/31 09:29:36;;;;;;;;;;;;;;;14.12;100.00;100509.38;5077941;28;19999;-66
2022/12/31 09:32:10;;;;;;;;;;;;;;;14.00;100.00;100513.94;5078180;28;19998;-66
2022/12/31 09:34:40;;;;;;;;;;;;;;;14.11;100.00;100513.03;5068077;28;20317;-66
2022/12/31 09:37:11;;;;;;;;;;;;;;;14.08;100.00;100510.59;5077952;28;20003;-67
2022/12/31 09:39:43;;;;;;;;;;;;;;;13.96;100.00;100520.50;5077312;28;19912;-66
2022/12/31 09:42:19;;;;;;;;;;;;;;;14.11;100.00;100514.84;5077959;28;19908;-66
2022/12/31 09:45:11;;;;;;;;;;;;;;;14.30;100.00;100518.53;5076321;28;19958;-66
2022/12/31 09:47:50;;;;;;;;;;;;;;;14.04;100.00;100525.22;5050175;28;19916;-65
2022/12/31 09:50:16;;;;;;;;;;;;;;;14.11;100.00;100523.72;5074853;28;19908;-66
2022/12/31 09:52:54;;;;;;;;;;;;;;;14.09;100.00;100518.50;5074512;28;19913;-66
2022/12/31 09:55:36;;;;;;;;;;;;;;;14.17;100.00;100522.34;5071832;28;19919;-67
2022/12/31 09:58:07;;;;;;;;;;;;;;;14.36;100.00;100508.31;5063257;28;19924;-67
2022/12/31 10:00:38;;;;;;;;;;;;;;;14.35;100.00;100520.81;5054705;28;19912;-66
2022/12/31 10:03:09;;;;;;;;;;;;;;;14.43;100.00;100513.00;5053440;28;19908;-66
2022/12/31 10:05:43;;;;;;;;;;;;;;;14.51;100.00;100521.25;5054414;28;19954;-66
2022/12/31 10:08:31;;;;;;;;;;;;;;;14.59;100.00;100530.44;5053654;28;19916;-66
2022/12/31 10:10:57;;;;;;;;;;;;;;;14.53;100.00;100524.66;5055303;28;19912;-66
2022/12/31 10:13:28;;;;;;;;;;;;;;;14.77;99.64;100550.31;5053866;28;19912;-66
2022/12/31 10:16:04;;;;;;;;;;;;;;;14.59;100.00;100525.97;5053940;28;19954;-66
2022/12/31 10:18:36;;;;;;;;;;;;;;;14.64;100.00;100536.25;5053655;28;19909;-66
2022/12/31 10:21:01;;;;;;;;;;;;;;;14.62;100.00;100528.38;5063764;28;19989;-66
2022/12/31 10:23:42;;;;;;;;;;;;;;;14.68;100.00;100529.69;5064149;28;20451;-67
2022/12/31 10:26:26;;;;;;;;;;;;;;;14.87;99.12;100526.28;5083162;28;20287;-66
2022/12/31 10:28:54;;;;;;;;;;;;;;;14.86;98.90;100530.78;5070516;28;19913;-67
2022/12/31 10:31:20;;;;;;;;;;;;;;;14.63;100.00;100511.34;5061954;28;19917;-67
2022/12/31 10:33:45;;;;;;;;;;;;;;;14.62;100.00;100506.97;5052580;28;20398;-66
2022/12/31 10:36:17;;;;;;;;;;;;;;;14.62;100.00;100504.28;5085492;28;20436;-66
2022/12/31 10:38:54;;;;;;;;;;;;;;;14.59;100.00;100488.50;5053315;28;19909;-67
2022/12/31 10:41:29;;;;;;;;;;;;;;;14.64;100.00;100501.47;5066852;28;19948;-66
2022/12/31 10:43:56;;;;;;;;;;;;;;;14.79;98.86;100510.84;5068229;28;19916;-67
2022/12/31 10:46:28;;;;;;;;;;;;;;;14.75;98.21;100499.56;5067313;28;19912;-66
2022/12/31 10:49:16;;;;;;;;;;;;;;;14.78;97.09;100503.81;5053479;28;19908;-67
2022/12/31 10:52:03;;;;;;;;;;;;;;;14.89;96.93;100513.59;5061066;28;19912;-67
2022/12/31 10:54:36;;;;;;;;;;;;;;;14.84;96.62;100526.53;5061849;28;19921;-67
2022/12/31 10:57:20;;;;;;;;;;;;;;;14.97;95.71;100519.13;5073087;28;20001;-66
2022/12/31 10:59:57;;;;;;;;;;;;;;;15.06;95.20;100522.84;5072716;28;20294;-66
2022/12/31 11:02:22;;;;;;;;;;;;;;;15.08;93.45;100523.56;5072154;28;19915;-67
2022/12/31 11:05:06;;;;;;;;;;;;;;;15.09;92.86;100528.78;5067073;28;19916;-67
2022/12/31 11:07:34;;;;;;;;;;;;;;;15.14;92.60;100539.94;5051933;28;19912;-67
2022/12/31 11:09:59;;;;;;;;;;;;;;;15.05;93.49;100538.06;5052668;28;20410;-66
2022/12/31 11:12:43;;;;;;;;;;;;;;;15.13;91.97;100540.94;5052946;28;19920;-67
2022/12/31 11:15:08;;;;;;;;;;;;;;;15.21;91.61;100543.78;5056840;28;19947;-67
2022/12/31 11:17:49;;;;;;;;;;;;;;;15.11;91.53;100540.19;5072721;28;19936;-66
2022/12/31 11:20:29;;;;;;;;;;;;;;;15.06;92.28;100534.41;5071923;28;20371;-66
2022/12/31 11:23:13;;;;;;;;;;;;;;;15.21;90.56;100541.09;5067849;28;20003;-67
2022/12/31 11:25:53;;;;;;;;;;;;;;;15.59;88.45;100544.91;5055872;28;19913;-66
2022/12/31 11:28:37;;;;;;;;;;;;;;;15.26;89.94;100545.22;5072371;28;19920;-67
2022/12/31 11:31:02;;;;;;;;;;;;;;;15.22;90.94;100550.00;5070135;28;19952;-67
2022/12/31 11:33:42;;;;;;;;;;;;;;;15.19;90.78;100548.41;5051086;28;19959;-67
2022/12/31 11:36:08;;;;;;;;;;;;;;;15.25;89.70;100541.69;5054751;28;20138;-67
2022/12/31 11:39:02;;;;;;;;;;;;;;;15.24;89.94;100550.72;5070693;28;19998;-66
2022/12/31 11:41:42;;;;;;;;;;;;;;;15.32;88.74;100553.53;5018289;28;20374;-67
2022/12/31 11:44:22;;;;;;;;;;;;;;;15.28;88.89;100552.13;5066698;28;19967;-66
2022/12/31 11:47:23;;;;;;;;;;;;;;;15.39;88.94;100556.56;5066018;28;19909;-67
2022/12/31 11:50:00;;;;;;;;;;;;;;;15.25;90.36;100551.56;5008104;28;20003;-67
2022/12/31 11:52:45;;;;;;;;;;;;;;;15.26;90.08;100551.41;5025327;28;19913;-67
2022/12/31 11:55:36;;;;;;;;;;;;;;;15.27;90.23;100549.59;5048397;28;19920;-67
2022/12/31 11:58:10;;;;;;;;;;;;;;;15.20;89.74;100547.44;5049612;28;20367;-67
2022/12/31 12:00:39;;;;;;;;;;;;;;;15.14;90.19;100542.59;5050457;28;20391;-67
2022/12/31 12:03:05;;;;;;;;;;;;;;;15.16;90.26;100551.38;5052046;28;19916;-67
2022/12/31 12:05:32;;;;;;;;;;;;;;;15.11;90.25;100555.44;5052530;28;19909;-67
2022/12/31 12:07:57;;;;;;;;;;;;;;;15.20;90.45;100546.59;5052907;28;20046;-67
2022/12/31 12:10:31;;;;;;;;;;;;;;;15.16;90.68;100547.84;5051060;28;19998;-67
2022/12/31 12:12:57;;;;;;;;;;;;;;;15.09;91.71;100554.69;5051828;28;19912;-67
2022/12/31 12:15:25;;;;;;;;;;;;;;;15.24;90.47;100552.56;5057699;28;19908;-66
2022/12/31 12:17:52;;;;;;;;;;;;;;;15.01;91.88;100547.34;5071851;28;19995;-66
2022/12/31 12:20:20;;;;;;;;;;;;;;;15.08;91.86;100540.47;5071776;28;19915;-66
2022/12/31 12:22:49;;;;;;;;;;;;;;;15.01;92.78;100542.00;5070766;28;20308;-66
2022/12/31 12:25:18;;;;;;;;;;;;;;;14.91;93.70;100541.94;5066116;28;19908;-66
2022/12/31 12:27:43;;;;;;;;;;;;;;;15.12;92.42;100549.94;5056387;28;19928;-66
2022/12/31 12:30:14;;;;;;;;;;;;;;;15.14;91.57;100553.31;5046419;28;20307;-66
2022/12/31 12:32:49;;;;;;;;;;;;;;;15.07;92.17;100557.53;5059212;28;19922;-67
2022/12/31 12:35:15;;;;;;;;;;;;;;;14.96;93.07;100534.34;5050616;28;20291;-66
2022/12/31 12:37:41;;;;;;;;;;;;;;;15.15;91.46;100538.13;5063851;28;20383;-67
2022/12/31 12:40:17;;;;;;;;;;;;;;;15.11;91.76;100534.84;5090643;28;19916;-66
2022/12/31 12:42:50;;;;;;;;;;;;;;;15.28;90.44;100524.50;5070604;28;19916;-66
2022/12/31 12:45:17;;;;;;;;;;;;;;;15.18;90.99;100536.03;5070626;28;19908;-67
2022/12/31 12:47:44;;;;;;;;;;;;;;;15.15;90.76;100514.84;5051834;28;19908;-67
2022/12/31 12:50:21;;;;;;;;;;;;;;;15.01;91.89;100525.09;5051484;28;19919;-66
2022/12/31 12:53:10;;;;;;;;;;;;;;;15.06;91.30;100523.72;5055198;28;19952;-66
2022/12/31 12:55:43;;;;;;;;;;;;;;;15.10;90.35;100519.75;5060016;28;20356;-66
2022/12/31 12:58:27;;;;;;;;;;;;;;;15.09;90.69;100527.91;5063001;28;19915;-67